createdAt,value
2016-05-26T00:00:39.105Z,65.4
2016-05-26T00:01:39.092Z,65.59
2016-05-26T00:02:39.095Z,65.69
2016-05-26T00:03:38.941Z,65.59
2016-05-26T00:04:39.132Z,65.59
2016-05-26T00:05:38.931Z,65.49
2016-05-26T00:06:39.090Z,65.59
2016-05-26T00:07:39.092Z,65.59
2016-05-26T00:08:39.080Z,65.59
2016-05-26T00:09:39.083Z,65.78
2016-05-26T00:10:39.272Z,65.97
2016-05-26T00:11:39.072Z,65.78
2016-05-26T00:12:39.058Z,65.88
2016-05-26T00:13:39.264Z,65.59
2016-05-26T00:14:39.065Z,65.01
2016-05-26T00:15:39.270Z,65.11
2016-05-26T00:16:38.898Z,65.4
2016-05-26T00:17:39.057Z,65.49
2016-05-26T00:18:38.888Z,65.49
2016-05-26T00:19:39.266Z,65.49
2016-05-26T00:20:39.238Z,65.3
2016-05-26T00:21:39.240Z,65.49
2016-05-26T00:22:39.039Z,65.3
2016-05-26T00:23:38.824Z,65.59
2016-05-26T00:24:39.060Z,65.3
2016-05-26T00:25:39.235Z,65.49
2016-05-26T00:26:39.034Z,65.4
2016-05-26T00:27:39.068Z,65.3
2016-05-26T00:28:38.821Z,65.3
2016-05-26T00:29:39.026Z,65.59
2016-05-26T00:30:39.014Z,65.49
2016-05-26T00:31:39.001Z,65.69
2016-05-26T00:32:39.003Z,65.4
2016-05-26T00:33:39.193Z,65.4
2016-05-26T00:34:39.009Z,65.49
2016-05-26T00:35:39.199Z,65.49
2016-05-26T00:36:39.187Z,65.59
2016-05-26T00:37:39.190Z,65.69
2016-05-26T00:38:39.192Z,65.59
2016-05-26T00:39:38.789Z,65.97
2016-05-26T00:40:38.978Z,65.59
2016-05-26T00:41:38.825Z,65.69
2016-05-26T00:42:38.984Z,65.97
2016-05-26T00:43:38.970Z,66.46
2016-05-26T00:44:38.958Z,66.26
2016-05-26T00:45:38.960Z,66.26
2016-05-26T00:46:38.994Z,66.07
2016-05-26T00:47:39.185Z,66.36
2016-05-26T00:48:38.766Z,66.26
2016-05-26T00:49:39.158Z,66.26
2016-05-26T00:50:38.943Z,66.26
2016-05-26T00:51:39.149Z,66.26
2016-05-26T00:52:39.135Z,66.07
2016-05-26T00:53:38.732Z,66.26
2016-05-26T00:54:39.141Z,66.07
2016-05-26T00:55:39.127Z,65.59
2016-05-26T00:56:38.943Z,65.78
2016-05-26T00:57:38.712Z,65.78
2016-05-26T00:58:38.918Z,65.11
2016-05-26T00:59:38.904Z,65.69
2016-05-26T01:00:38.704Z,65.69
2016-05-26T01:01:38.957Z,65.49
2016-05-26T01:02:39.115Z,65.59
2016-05-26T01:03:38.962Z,65.59
2016-05-26T01:04:39.106Z,65.49
2016-05-26T01:05:39.093Z,65.49
2016-05-26T01:06:39.126Z,65.59
2016-05-26T01:07:38.895Z,65.49
2016-05-26T01:08:39.084Z,65.59
2016-05-26T01:09:38.681Z,65.49
2016-05-26T01:10:38.887Z,65.69
2016-05-26T01:11:39.077Z,65.59
2016-05-26T01:12:38.878Z,65.4
2016-05-26T01:13:38.661Z,65.59
2016-05-26T01:14:38.866Z,65.59
2016-05-26T01:15:38.853Z,65.49
2016-05-26T01:16:38.669Z,65.69
2016-05-26T01:17:38.859Z,65.88
2016-05-26T01:18:38.846Z,65.49
2016-05-26T01:19:39.067Z,65.59
2016-05-26T01:20:38.649Z,65.59
2016-05-26T01:21:39.042Z,65.59
2016-05-26T01:22:38.888Z,65.69
2016-05-26T01:23:38.890Z,65.49
2016-05-26T01:24:38.831Z,65.59
2016-05-26T01:25:38.833Z,65.69
2016-05-26T01:26:38.836Z,65.59
2016-05-26T01:27:38.823Z,65.59
2016-05-26T01:28:38.623Z,65.49
2016-05-26T01:29:38.829Z,65.59
2016-05-26T01:30:38.815Z,65.49
2016-05-26T01:31:38.819Z,65.59
2016-05-26T01:32:38.821Z,65.49
2016-05-26T01:33:39.012Z,65.59
2016-05-26T01:34:38.607Z,65.69
2016-05-26T01:35:38.814Z,65.49
2016-05-26T01:36:39.004Z,65.49
2016-05-26T01:37:38.429Z,65.59
2016-05-26T01:38:38.791Z,65.49
2016-05-26T01:39:38.996Z,65.69
2016-05-26T01:40:38.796Z,65.59
2016-05-26T01:41:38.580Z,65.69
2016-05-26T01:42:38.801Z,65.69
2016-05-26T01:43:38.773Z,65.59
2016-05-26T01:44:38.572Z,65.49
2016-05-26T01:45:38.966Z,66.07
2016-05-26T01:46:38.968Z,65.59
2016-05-26T01:47:38.767Z,65.59
2016-05-26T01:48:38.755Z,65.97
2016-05-26T01:49:38.554Z,65.69
2016-05-26T01:50:38.963Z,66.07
2016-05-26T01:51:38.950Z,66.07
2016-05-26T01:52:38.953Z,65.78
2016-05-26T01:53:38.956Z,65.59
2016-05-26T01:54:38.740Z,65.75
2016-05-26T01:55:38.743Z,65.56
2016-05-26T01:56:38.730Z,65.69
2016-05-26T01:57:38.936Z,65.4
2016-05-26T01:58:38.735Z,65.46
2016-05-26T01:59:38.925Z,65.49
2016-05-26T02:00:38.927Z,65.97
2016-05-26T02:01:38.712Z,65.49
2016-05-26T02:02:38.699Z,65.59
2016-05-26T02:03:38.717Z,65.49
2016-05-26T02:04:38.704Z,65.59
2016-05-26T02:05:38.925Z,65.49
2016-05-26T02:06:38.694Z,65.94
2016-05-26T02:07:38.900Z,65.59
2016-05-26T02:08:38.903Z,65.88
2016-05-26T02:09:38.545Z,65.49
2016-05-26T02:10:38.892Z,65.4
2016-05-26T02:11:38.879Z,66.03
2016-05-26T02:12:38.475Z,66.03
2016-05-26T02:13:38.682Z,66.03
2016-05-26T02:14:38.872Z,65.56
2016-05-26T02:15:38.671Z,65.65
2016-05-26T02:16:38.658Z,65.59
2016-05-26T02:17:39.442Z,65.56
2016-05-26T02:18:38.648Z,65.94
2016-05-26T02:19:38.292Z,65.46
2016-05-26T02:20:38.856Z,65.49
2016-05-26T02:21:38.859Z,66.03
2016-05-26T02:22:38.644Z,65.56
2016-05-26T02:23:38.849Z,65.56
2016-05-26T02:24:38.680Z,65.56
2016-05-26T02:25:38.838Z,65.46
2016-05-26T02:26:38.685Z,65.56
2016-05-26T02:27:38.625Z,65.56
2016-05-26T02:28:38.831Z,65.65
2016-05-26T02:29:38.427Z,65.56
2016-05-26T02:30:38.821Z,65.56
2016-05-26T02:31:38.823Z,65.4
2016-05-26T02:32:39.185Z,65.75
2016-05-26T02:33:38.657Z,65.65
2016-05-26T02:34:38.801Z,65.49
2016-05-26T02:35:38.601Z,65.94
2016-05-26T02:36:38.603Z,65.46
2016-05-26T02:37:38.590Z,65.94
2016-05-26T02:38:38.812Z,65.94
2016-05-26T02:39:38.595Z,65.84
2016-05-26T02:40:38.801Z,65.65
2016-05-26T02:41:38.429Z,65.84
2016-05-26T02:42:38.790Z,65.84
2016-05-26T02:43:38.575Z,66.03
2016-05-26T02:44:38.625Z,65.56
2016-05-26T02:45:38.564Z,65.17
2016-05-26T02:46:38.833Z,65.94
2016-05-26T02:47:38.678Z,65.94
2016-05-26T02:48:38.556Z,65.17
2016-05-26T02:49:38.700Z,65.65
2016-05-26T02:50:38.608Z,65.75
2016-05-26T02:51:38.658Z,65.65
2016-05-26T02:52:38.583Z,65.46
2016-05-26T02:53:38.805Z,65.65
2016-05-26T02:54:38.652Z,65.94
2016-05-26T02:55:38.342Z,65.36
2016-05-26T02:56:38.327Z,65.36
2016-05-26T02:57:38.535Z,65.46
2016-05-26T02:58:38.725Z,65.56
2016-05-26T02:59:38.336Z,65.46
2016-05-26T03:00:38.527Z,65.46
2016-05-26T03:01:38.513Z,65.84
2016-05-26T03:02:38.719Z,66.13
2016-05-26T03:03:38.504Z,65.75
2016-05-26T03:04:38.506Z,65.56
2016-05-26T03:05:38.493Z,66.03
2016-05-26T03:06:38.512Z,65.46
2016-05-26T03:07:38.701Z,65.56
2016-05-26T03:08:38.690Z,65.46
2016-05-26T03:09:38.488Z,65.75
2016-05-26T03:10:38.490Z,65.56
2016-05-26T03:11:38.275Z,65.84
2016-05-26T03:12:38.481Z,65.46
2016-05-26T03:13:38.328Z,65.56
2016-05-26T03:14:38.674Z,65.94
2016-05-26T03:15:38.676Z,65.56
2016-05-26T03:16:38.523Z,65.46
2016-05-26T03:17:38.823Z,65.56
2016-05-26T03:18:38.669Z,65.65
2016-05-26T03:19:38.656Z,65.56
2016-05-26T03:20:38.252Z,66.03
2016-05-26T03:21:38.239Z,65.94
2016-05-26T03:22:38.242Z,66.13
2016-05-26T03:23:38.650Z,65.94
2016-05-26T03:24:38.232Z,66.03
2016-05-26T03:25:38.235Z,66.13
2016-05-26T03:26:38.627Z,66.23
2016-05-26T03:27:38.224Z,65.84
2016-05-26T03:28:38.633Z,66.13
2016-05-26T03:29:38.433Z,66.42
2016-05-26T03:30:38.623Z,66.42
2016-05-26T03:31:38.251Z,66.23
2016-05-26T03:32:38.738Z,66.33
2016-05-26T03:33:38.413Z,66.42
2016-05-26T03:34:38.602Z,65.75
2016-05-26T03:35:38.448Z,65.84
2016-05-26T03:36:38.046Z,66.03
2016-05-26T03:37:38.595Z,66.13
2016-05-26T03:38:38.395Z,66.03
2016-05-26T03:39:38.193Z,66.13
2016-05-26T03:40:38.587Z,66.23
2016-05-26T03:41:38.231Z,66.13
2016-05-26T03:42:38.576Z,65.84
2016-05-26T03:43:38.579Z,66.23
2016-05-26T03:44:38.379Z,66.13
2016-05-26T03:45:38.569Z,65.56
2016-05-26T03:46:38.572Z,66.03
2016-05-26T03:47:38.559Z,65.94
2016-05-26T03:48:38.359Z,65.94
2016-05-26T03:49:38.550Z,66.13
2016-05-26T03:50:38.145Z,66.03
2016-05-26T03:51:38.148Z,65.84
2016-05-26T03:52:38.557Z,66.03
2016-05-26T03:53:38.341Z,66.03
2016-05-26T03:54:38.547Z,65.84
2016-05-26T03:55:38.534Z,66.03
2016-05-26T03:56:38.349Z,66.42
2016-05-26T03:57:38.133Z,66.42
2016-05-26T03:58:38.323Z,66.33
2016-05-26T03:59:38.529Z,66.33
2016-05-26T04:00:38.157Z,66.42
2016-05-26T04:01:38.113Z,65.75
2016-05-26T04:02:38.146Z,65.94
2016-05-26T04:03:38.305Z,66.03
2016-05-26T04:04:38.136Z,66.03
2016-05-26T04:05:38.296Z,65.84
2016-05-26T04:06:38.282Z,66.03
2016-05-26T04:07:38.332Z,65.84
2016-05-26T04:08:38.491Z,66.03
2016-05-26T04:09:38.478Z,66.03
2016-05-26T04:10:38.277Z,65.84
2016-05-26T04:11:38.279Z,65.84
2016-05-26T04:12:38.267Z,66.03
2016-05-26T04:13:38.270Z,66.13
2016-05-26T04:14:38.476Z,65.94
2016-05-26T04:15:38.306Z,65.94
2016-05-26T04:16:38.262Z,65.84
2016-05-26T04:17:38.983Z,66.23
2016-05-26T04:18:38.253Z,66.03
2016-05-26T04:19:38.256Z,66.13
2016-05-26T04:20:38.241Z,65.94
2016-05-26T04:21:38.228Z,65.84
2016-05-26T04:22:38.450Z,65.84
2016-05-26T04:23:38.234Z,66.13
2016-05-26T04:24:38.222Z,65.84
2016-05-26T04:25:38.239Z,65.84
2016-05-26T04:26:38.414Z,65.94
2016-05-26T04:27:38.011Z,65.84
2016-05-26T04:28:38.232Z,66.03
2016-05-26T04:29:38.407Z,65.84
2016-05-26T04:30:38.206Z,66.03
2016-05-26T04:31:38.396Z,66.03
2016-05-26T04:32:38.258Z,66.03
2016-05-26T04:33:38.402Z,66
2016-05-26T04:34:38.420Z,66.23
2016-05-26T04:35:38.188Z,65.94
2016-05-26T04:36:38.393Z,66.23
2016-05-26T04:37:38.022Z,65.94
2016-05-26T04:38:37.978Z,66.19
2016-05-26T04:39:38.012Z,66.13
2016-05-26T04:40:37.968Z,66.52
2016-05-26T04:41:38.157Z,66.19
2016-05-26T04:42:38.160Z,66.1
2016-05-26T04:43:37.991Z,66.1
2016-05-26T04:44:38.165Z,66.42
2016-05-26T04:45:38.356Z,66.29
2016-05-26T04:46:37.953Z,66.42
2016-05-26T04:47:38.330Z,66.19
2016-05-26T04:48:38.145Z,66.29
2016-05-26T04:49:37.945Z,66.23
2016-05-26T04:50:37.775Z,66.39
2016-05-26T04:51:37.981Z,66.39
2016-05-26T04:52:37.922Z,66.42
2016-05-26T04:53:37.972Z,66.1
2016-05-26T04:54:38.115Z,66.29
2016-05-26T04:55:38.116Z,66.42
2016-05-26T04:56:38.105Z,66.33
2016-05-26T04:57:37.951Z,66.19
2016-05-26T04:58:38.110Z,66.19
2016-05-26T04:59:38.097Z,66.19
2016-05-26T05:00:38.099Z,66.23
2016-05-26T05:01:38.086Z,66.1
2016-05-26T05:02:37.761Z,66.19
2016-05-26T05:03:38.076Z,66.29
2016-05-26T05:04:37.876Z,66.1
2016-05-26T05:05:38.143Z,66
2016-05-26T05:06:38.068Z,66.33
2016-05-26T05:07:38.088Z,66.42
2016-05-26T05:08:37.855Z,66.49
2016-05-26T05:09:38.264Z,66.29
2016-05-26T05:10:38.063Z,66.03
2016-05-26T05:11:38.051Z,66
2016-05-26T05:12:38.257Z,66.29
2016-05-26T05:13:38.041Z,66.19
2016-05-26T05:14:38.043Z,66.29
2016-05-26T05:15:38.249Z,66.1
2016-05-26T05:16:38.237Z,66.49
2016-05-26T05:17:38.036Z,66
2016-05-26T05:18:38.319Z,66
2016-05-26T05:19:38.228Z,66.39
2016-05-26T05:20:37.872Z,66.19
2016-05-26T05:21:38.015Z,66
2016-05-26T05:22:38.220Z,65.91
2016-05-26T05:23:38.209Z,66
2016-05-26T05:24:38.008Z,65.91
2016-05-26T05:25:38.213Z,66.77
2016-05-26T05:26:37.794Z,66.1
2016-05-26T05:27:38.203Z,66
2016-05-26T05:28:37.784Z,66.1
2016-05-26T05:29:38.194Z,65.91
2016-05-26T05:30:37.992Z,66.19
2016-05-26T05:31:37.995Z,66.77
2016-05-26T05:32:38.077Z,66.1
2016-05-26T05:33:38.047Z,66
2016-05-26T05:34:37.972Z,66
2016-05-26T05:35:37.975Z,66
2016-05-26T05:36:37.962Z,66
2016-05-26T05:37:37.965Z,66.29
2016-05-26T05:38:37.810Z,66
2016-05-26T05:39:38.157Z,65.91
2016-05-26T05:40:38.144Z,65.91
2016-05-26T05:41:38.147Z,66.1
2016-05-26T05:42:37.743Z,66.1
2016-05-26T05:43:38.137Z,66.1
2016-05-26T05:44:38.139Z,66.29
2016-05-26T05:45:38.126Z,66.39
2016-05-26T05:46:37.942Z,66.29
2016-05-26T05:47:37.804Z,66.19
2016-05-26T05:48:37.916Z,66.29
2016-05-26T05:49:38.122Z,65.91
2016-05-26T05:50:38.125Z,65.91
2016-05-26T05:51:37.909Z,65.72
2016-05-26T05:52:37.692Z,65.81
2016-05-26T05:53:38.272Z,65.81
2016-05-26T05:54:38.103Z,65.91
2016-05-26T05:55:37.903Z,66.19
2016-05-26T05:56:37.891Z,66.13
2016-05-26T05:57:37.689Z,66
2016-05-26T05:58:37.880Z,66.1
2016-05-26T05:59:37.899Z,65.91
2016-05-26T06:00:37.869Z,66.03
2016-05-26T06:01:37.717Z,66.19
2016-05-26T06:02:38.235Z,65.84
2016-05-26T06:03:37.660Z,66.03
2016-05-26T06:04:37.647Z,66
2016-05-26T06:05:37.868Z,66.1
2016-05-26T06:06:37.855Z,65.91
2016-05-26T06:07:37.841Z,65.75
2016-05-26T06:08:38.048Z,65.81
2016-05-26T06:09:38.051Z,65.43
2016-05-26T06:10:37.647Z,65.56
2016-05-26T06:11:38.040Z,66.03
2016-05-26T06:12:37.684Z,65.56
2016-05-26T06:13:38.046Z,65.65
2016-05-26T06:14:37.673Z,65.46
2016-05-26T06:15:38.020Z,65.46
2016-05-26T06:16:38.022Z,65.36
2016-05-26T06:17:37.650Z,65.46
2016-05-26T06:18:38.529Z,65.75
2016-05-26T06:19:38.015Z,65.27
2016-05-26T06:20:37.799Z,65.27
2016-05-26T06:21:37.598Z,65.27
2016-05-26T06:22:37.586Z,65.36
2016-05-26T06:23:37.995Z,65.36
2016-05-26T06:24:37.794Z,65.36
2016-05-26T06:25:37.781Z,65.17
2016-05-26T06:26:37.784Z,65.17
2016-05-26T06:27:37.989Z,65.17
2016-05-26T06:28:37.773Z,64.98
2016-05-26T06:29:37.964Z,65.27
2016-05-26T06:30:37.763Z,65.36
2016-05-26T06:31:37.969Z,64.79
2016-05-26T06:32:37.753Z,64.89
2016-05-26T06:33:37.802Z,64.98
2016-05-26T06:34:37.758Z,64.98
2016-05-26T06:35:37.557Z,64.89
2016-05-26T06:36:37.951Z,64.79
2016-05-26T06:37:37.939Z,65.27
2016-05-26T06:38:37.738Z,65.36
2016-05-26T06:39:37.944Z,65.46
2016-05-26T06:40:37.727Z,65.46
2016-05-26T06:41:37.527Z,65.56
2016-05-26T06:42:37.733Z,65.75
2016-05-26T06:43:37.721Z,65.94
2016-05-26T06:44:37.723Z,65.46
2016-05-26T06:45:37.726Z,65.94
2016-05-26T06:46:37.713Z,66.23
2016-05-26T06:47:37.543Z,65.56
2016-05-26T06:48:37.702Z,66.03
2016-05-26T06:49:37.720Z,65.94
2016-05-26T06:50:37.504Z,66.13
2016-05-26T06:51:37.898Z,65.84
2016-05-26T06:52:37.885Z,65.84
2016-05-26T06:53:37.887Z,65.94
2016-05-26T06:54:37.467Z,65.56
2016-05-26T06:55:37.878Z,65.65
2016-05-26T06:56:37.520Z,65.94
2016-05-26T06:57:37.883Z,65.4
2016-05-26T06:58:37.667Z,65.49
2016-05-26T06:59:37.872Z,65.59
2016-05-26T07:00:37.453Z,65.3
2016-05-26T07:01:37.675Z,65.3
2016-05-26T07:02:37.490Z,65.49
2016-05-26T07:03:37.649Z,65.4
2016-05-26T07:04:37.433Z,65.11
2016-05-26T07:05:37.842Z,65.2
2016-05-26T07:06:37.438Z,65.2
2016-05-26T07:07:37.832Z,65.3
2016-05-26T07:08:37.834Z,65.3
2016-05-26T07:09:37.430Z,65.11
2016-05-26T07:10:37.621Z,64.92
2016-05-26T07:11:37.404Z,64.92
2016-05-26T07:12:37.610Z,65.01
2016-05-26T07:13:37.801Z,64.82
2016-05-26T07:14:37.444Z,64.82
2016-05-26T07:15:37.399Z,64.82
2016-05-26T07:16:37.793Z,65.01
2016-05-26T07:17:37.233Z,65.11
2016-05-26T07:18:38.190Z,65.2
2016-05-26T07:19:37.786Z,65.11
2016-05-26T07:20:37.585Z,64.72
2016-05-26T07:21:37.432Z,64.66
2016-05-26T07:22:37.778Z,64.82
2016-05-26T07:23:37.375Z,64.53
2016-05-26T07:24:37.565Z,64.92
2016-05-26T07:25:37.567Z,64.95
2016-05-26T07:26:37.367Z,64.43
2016-05-26T07:27:37.557Z,64.66
2016-05-26T07:28:37.747Z,64.66
2016-05-26T07:29:37.547Z,64.37
2016-05-26T07:30:37.346Z,64.85
2016-05-26T07:31:37.739Z,64.85
2016-05-26T07:32:37.742Z,64.47
2016-05-26T07:33:37.870Z,64.66
2016-05-26T07:34:37.544Z,64.28
2016-05-26T07:35:37.532Z,64.28
2016-05-26T07:36:37.315Z,64.37
2016-05-26T07:37:37.333Z,64.47
2016-05-26T07:38:37.564Z,64.37
2016-05-26T07:39:37.372Z,64.28
2016-05-26T07:40:37.603Z,64.18
2016-05-26T07:41:37.412Z,64.18
2016-05-26T07:42:37.852Z,64.37
2016-05-26T07:43:37.630Z,64.28
2016-05-26T07:44:37.438Z,64.37
2016-05-26T07:45:37.449Z,64.28
2016-05-26T07:46:37.648Z,64.37
2016-05-26T07:47:37.657Z,64.4
2016-05-26T07:48:37.506Z,64.02
2016-05-26T07:49:37.857Z,64.22
2016-05-26T07:50:37.660Z,64.22
2016-05-26T07:51:37.494Z,64.02
2016-05-26T07:52:37.499Z,64.22
2016-05-26T07:53:37.644Z,64.22
2016-05-26T07:54:37.662Z,64.12
2016-05-26T07:55:37.448Z,64.12
2016-05-26T07:56:37.656Z,64.12
2016-05-26T07:57:37.643Z,64.12
2016-05-26T07:58:37.645Z,64.12
2016-05-26T07:59:37.633Z,64.12
2016-05-26T08:00:37.839Z,64.22
2016-05-26T08:01:37.420Z,64.22
2016-05-26T08:02:37.424Z,64.4
2016-05-26T08:03:37.879Z,64.02
2016-05-26T08:04:37.663Z,64.22
2016-05-26T08:05:37.822Z,64.22
2016-05-26T08:06:37.810Z,64.12
2016-05-26T08:07:37.608Z,64.02
2016-05-26T08:08:37.485Z,64.02
2016-05-26T08:09:37.614Z,64.22
2016-05-26T08:10:37.602Z,64.02
2016-05-26T08:11:37.604Z,64.31
2016-05-26T08:12:37.794Z,64.22
2016-05-26T08:13:37.796Z,64.22
2016-05-26T08:14:37.784Z,64.12
2016-05-26T08:15:37.787Z,64.02
2016-05-26T08:16:37.571Z,64.12
2016-05-26T08:17:37.370Z,64.4
2016-05-26T08:18:37.778Z,64.22
2016-05-26T08:19:37.407Z,64.6
2016-05-26T08:20:37.565Z,64.02
2016-05-26T08:21:37.756Z,64.12
2016-05-26T08:22:37.555Z,65.01
2016-05-26T08:23:37.761Z,64.73
2016-05-26T08:24:37.545Z,64.43
2016-05-26T08:25:37.391Z,64.25
2016-05-26T08:26:37.331Z,64.63
2016-05-26T08:27:37.537Z,64.25
2016-05-26T08:28:37.743Z,63.92
2016-05-26T08:29:37.527Z,63.86
2016-05-26T08:30:37.733Z,63.57
2016-05-26T08:31:37.516Z,63.86
2016-05-26T08:32:37.519Z,63.86
2016-05-26T08:33:37.523Z,63.57
2016-05-26T08:34:37.321Z,63.76
2016-05-26T08:35:37.512Z,63.67
2016-05-26T08:36:37.499Z,63.67
2016-05-26T08:37:37.705Z,63.48
2016-05-26T08:38:37.505Z,63.57
2016-05-26T08:39:37.695Z,63.38
2016-05-26T08:40:37.696Z,63.38
2016-05-26T08:41:37.497Z,63.95
2016-05-26T08:42:37.500Z,63.28
2016-05-26T08:43:37.690Z,63.48
2016-05-26T08:44:37.474Z,63.48
2016-05-26T08:45:37.476Z,63.48
2016-05-26T08:46:37.479Z,63.28
2016-05-26T08:47:37.482Z,63.38
2016-05-26T08:48:37.485Z,63.48
2016-05-26T08:49:37.268Z,63.48
2016-05-26T08:50:37.474Z,62.9
2016-05-26T08:51:37.462Z,63.09
2016-05-26T08:52:37.511Z,63.28
2016-05-26T08:53:37.451Z,63.09
2016-05-26T08:54:37.438Z,63.48
2016-05-26T08:55:37.659Z,63.28
2016-05-26T08:56:37.444Z,63.38
2016-05-26T08:57:37.447Z,63.38
2016-05-26T08:58:37.652Z,62.99
2016-05-26T08:59:37.233Z,63.48
2016-05-26T09:00:37.439Z,63.09
2016-05-26T09:01:37.441Z,63.09
2016-05-26T09:02:37.444Z,63.31
2016-05-26T09:03:38.228Z,62.8
2016-05-26T09:04:37.621Z,63.48
2016-05-26T09:05:37.421Z,63.18
2016-05-26T09:06:37.408Z,62.99
2016-05-26T09:07:37.207Z,63.18
2016-05-26T09:08:37.413Z,63.38
2016-05-26T09:09:37.604Z,63.38
2016-05-26T09:10:37.402Z,63.57
2016-05-26T09:11:37.609Z,63.57
2016-05-26T09:12:37.393Z,63.48
2016-05-26T09:13:37.192Z,63.38
2016-05-26T09:14:37.601Z,63.38
2016-05-26T09:15:37.432Z,63.38
2016-05-26T09:16:37.388Z,63.48
2016-05-26T09:17:37.390Z,63.57
2016-05-26T09:18:37.721Z,63.76
2016-05-26T09:19:37.381Z,63.95
2016-05-26T09:20:37.179Z,63.38
2016-05-26T09:21:37.573Z,63.48
2016-05-26T09:22:37.373Z,63.41
2016-05-26T09:23:37.360Z,63.38
2016-05-26T09:24:37.566Z,63.41
2016-05-26T09:25:37.161Z,63.79
2016-05-26T09:26:37.353Z,63.41
2016-05-26T09:27:37.355Z,63.12
2016-05-26T09:28:37.155Z,63.31
2016-05-26T09:29:37.173Z,63.22
2016-05-26T09:30:37.161Z,63.02
2016-05-26T09:31:37.538Z,63.31
2016-05-26T09:32:37.353Z,62.54
2016-05-26T09:33:37.356Z,63.41
2016-05-26T09:34:37.327Z,63.12
2016-05-26T09:35:37.330Z,63.12
2016-05-26T09:36:37.332Z,63.02
2016-05-26T09:37:37.319Z,63.31
2016-05-26T09:38:37.525Z,62.64
2016-05-26T09:39:37.528Z,62.93
2016-05-26T09:40:37.327Z,62.83
2016-05-26T09:41:37.518Z,62.93
2016-05-26T09:42:37.318Z,63.02
2016-05-26T09:43:37.351Z,62.93
2016-05-26T09:44:37.323Z,62.83
2016-05-26T09:45:37.154Z,62.83
2016-05-26T09:46:37.297Z,62.83
2016-05-26T09:47:37.143Z,62.83
2016-05-26T09:48:37.599Z,62.74
2016-05-26T09:49:37.087Z,62.64
2016-05-26T09:50:37.495Z,62.74
2016-05-26T09:51:37.295Z,62.83
2016-05-26T09:52:37.297Z,62.64
2016-05-26T09:53:37.285Z,62.64
2016-05-26T09:54:37.084Z,62.74
2016-05-26T09:55:37.478Z,62.83
2016-05-26T09:56:37.276Z,62.74
2016-05-26T09:57:37.279Z,62.67
2016-05-26T09:58:37.267Z,62.77
2016-05-26T09:59:37.270Z,62.67
2016-05-26T10:00:37.053Z,62.87
2016-05-26T10:01:37.056Z,63.06
2016-05-26T10:02:37.261Z,62.96
2016-05-26T10:03:37.467Z,63.06
2016-05-26T10:04:36.892Z,62.77
2016-05-26T10:05:37.255Z,62.87
2016-05-26T10:06:37.460Z,62.77
2016-05-26T10:07:37.244Z,63.15
2016-05-26T10:08:37.450Z,62.87
2016-05-26T10:09:37.093Z,62.96
2016-05-26T10:10:37.033Z,62.48
2016-05-26T10:11:37.036Z,62.87
2016-05-26T10:12:37.242Z,62.67
2016-05-26T10:13:37.229Z,62.87
2016-05-26T10:14:37.232Z,62.77
2016-05-26T10:15:37.422Z,62.96
2016-05-26T10:16:37.221Z,62.67
2016-05-26T10:17:37.067Z,62.67
2016-05-26T10:18:37.618Z,62.67
2016-05-26T10:19:37.229Z,63.15
2016-05-26T10:20:37.216Z,62.67
2016-05-26T10:21:37.422Z,62.38
2016-05-26T10:22:37.206Z,62.96
2016-05-26T10:23:37.209Z,62.96
2016-05-26T10:24:37.056Z,62.77
2016-05-26T10:25:37.214Z,62.96
2016-05-26T10:26:37.404Z,62.67
2016-05-26T10:27:37.423Z,62.96
2016-05-26T10:28:37.207Z,62.87
2016-05-26T10:29:37.194Z,62.87
2016-05-26T10:30:37.197Z,62.77
2016-05-26T10:31:37.402Z,62.77
2016-05-26T10:32:37.420Z,63.06
2016-05-26T10:33:37.580Z,62.87
2016-05-26T10:34:37.035Z,62.67
2016-05-26T10:35:37.178Z,62.96
2016-05-26T10:36:37.383Z,62.87
2016-05-26T10:37:37.169Z,63.34
2016-05-26T10:38:37.186Z,62.77
2016-05-26T10:39:37.174Z,62.57
2016-05-26T10:40:37.177Z,62.67
2016-05-26T10:41:37.179Z,63.06
2016-05-26T10:42:36.963Z,62.96
2016-05-26T10:43:37.371Z,62.67
2016-05-26T10:44:37.374Z,62.48
2016-05-26T10:45:36.956Z,62.67
2016-05-26T10:46:37.365Z,62.67
2016-05-26T10:47:36.961Z,62.67
2016-05-26T10:48:37.338Z,62.29
2016-05-26T10:49:36.951Z,62.77
2016-05-26T10:50:37.015Z,62.57
2016-05-26T10:51:37.144Z,62.6
2016-05-26T10:52:37.146Z,62.32
2016-05-26T10:53:37.352Z,62.38
2016-05-26T10:54:37.151Z,62.41
2016-05-26T10:55:37.139Z,62.12
2016-05-26T10:56:36.937Z,62.12
2016-05-26T10:57:36.987Z,61.93
2016-05-26T10:58:37.334Z,62.03
2016-05-26T10:59:37.337Z,62.03
2016-05-26T11:00:37.339Z,62.51
2016-05-26T11:01:37.123Z,62.03
2016-05-26T11:02:36.923Z,61.93
2016-05-26T11:03:36.785Z,62.22
2016-05-26T11:04:37.147Z,62.12
2016-05-26T11:05:36.916Z,62.51
2016-05-26T11:06:37.325Z,62.51
2016-05-26T11:07:36.921Z,62.32
2016-05-26T11:08:37.314Z,62.32
2016-05-26T11:09:37.317Z,62.03
2016-05-26T11:10:37.319Z,62.03
2016-05-26T11:11:36.916Z,62.03
2016-05-26T11:12:37.106Z,62.03
2016-05-26T11:13:37.108Z,62.03
2016-05-26T11:14:37.299Z,62.12
2016-05-26T11:15:36.942Z,61.65
2016-05-26T11:16:36.898Z,61.83
2016-05-26T11:17:37.088Z,61.65
2016-05-26T11:18:37.326Z,62.41
2016-05-26T11:19:37.313Z,61.83
2016-05-26T11:20:37.284Z,61.16
2016-05-26T11:21:37.084Z,61.07
2016-05-26T11:22:37.087Z,61.25
2016-05-26T11:23:37.307Z,61.16
2016-05-26T11:24:37.295Z,61.07
2016-05-26T11:25:37.079Z,61.07
2016-05-26T11:26:36.722Z,60.87
2016-05-26T11:27:37.068Z,60.68
2016-05-26T11:28:37.273Z,60.39
2016-05-26T11:29:37.074Z,60.49
2016-05-26T11:30:37.076Z,60.68
2016-05-26T11:31:37.111Z,60.2
2016-05-26T11:32:36.909Z,60.2
2016-05-26T11:33:36.881Z,60.1
2016-05-26T11:34:37.275Z,60.2
2016-05-26T11:35:37.262Z,60.1
2016-05-26T11:36:37.264Z,59.91
2016-05-26T11:37:36.892Z,60.1
2016-05-26T11:38:37.270Z,60.39
2016-05-26T11:39:36.897Z,59.81
2016-05-26T11:40:37.056Z,60.2
2016-05-26T11:41:36.856Z,60.2
2016-05-26T11:42:37.266Z,60.1
2016-05-26T11:43:37.049Z,60.1
2016-05-26T11:44:37.067Z,60.39
2016-05-26T11:45:37.054Z,60.1
2016-05-26T11:46:37.947Z,59.81
2016-05-26T11:47:37.607Z,59.91
2016-05-26T11:48:36.844Z,60
2016-05-26T11:49:37.034Z,59.81
2016-05-26T11:50:37.240Z,59.91
2016-05-26T11:51:37.243Z,60
2016-05-26T11:52:37.246Z,59.91
2016-05-26T11:53:36.826Z,59.62
2016-05-26T11:54:37.032Z,59.81
2016-05-26T11:55:37.050Z,60
2016-05-26T11:56:37.022Z,59.72
2016-05-26T11:57:38.118Z,60.1
2016-05-26T11:58:37.026Z,60
2016-05-26T11:59:37.577Z,60.2
2016-05-26T12:00:36.954Z,60
2016-05-26T12:01:37.019Z,60
2016-05-26T12:02:37.022Z,59.43
2016-05-26T12:03:38.259Z,59.62
2016-05-26T12:04:37.387Z,59.23
2016-05-26T12:05:37.889Z,59.23
2016-05-26T12:06:37.486Z,59.14
2016-05-26T12:07:37.192Z,59.04
2016-05-26T12:08:36.975Z,59.23
2016-05-26T12:09:37.057Z,58.95
2016-05-26T12:10:37.700Z,58.95
2016-05-26T12:11:37.014Z,58.95
2016-05-26T12:12:37.221Z,59.04
2016-05-26T12:13:37.005Z,59.17
2016-05-26T12:14:37.211Z,58.95
2016-05-26T12:15:37.010Z,59.14
2016-05-26T12:16:37.216Z,59.62
2016-05-26T12:17:36.999Z,59.62
2016-05-26T12:18:36.846Z,59.43
2016-05-26T12:19:37.005Z,59.23
2016-05-26T12:20:36.993Z,59.43
2016-05-26T12:21:37.010Z,59.14
2016-05-26T12:22:36.841Z,59.27
2016-05-26T12:23:36.984Z,58.88
2016-05-26T12:24:37.191Z,59.07
2016-05-26T12:25:36.990Z,59.17
2016-05-26T12:26:36.992Z,59.04
2016-05-26T12:27:37.199Z,58.85
2016-05-26T12:28:37.185Z,58.95
2016-05-26T12:29:37.188Z,58.97
2016-05-26T12:30:38.082Z,59.14
2016-05-26T12:31:36.990Z,58.75
2016-05-26T12:32:36.978Z,58.95
2016-05-26T12:33:37.293Z,58.85
2016-05-26T12:34:36.781Z,58.65
2016-05-26T12:35:36.767Z,58.27
2016-05-26T12:36:37.019Z,58.37
2016-05-26T12:37:36.773Z,57.98
2016-05-26T12:38:36.979Z,57.89
2016-05-26T12:39:37.169Z,57.98
2016-05-26T12:40:36.609Z,57.6
2016-05-26T12:41:37.174Z,57.79
2016-05-26T12:42:36.973Z,57.72
2016-05-26T12:43:36.960Z,57.82
2016-05-26T12:44:37.167Z,57.92
2016-05-26T12:45:36.966Z,57.82
2016-05-26T12:46:36.953Z,57.72
2016-05-26T12:47:36.799Z,57.62
2016-05-26T12:48:36.599Z,57.34
2016-05-26T12:49:36.961Z,57.53
2016-05-26T12:50:36.760Z,58.49
2016-05-26T12:51:37.404Z,58.88
2016-05-26T12:52:36.954Z,57.92
2016-05-26T12:53:37.144Z,57.72
2016-05-26T12:54:36.787Z,58.11
2016-05-26T12:55:36.743Z,58.49
2016-05-26T12:56:36.949Z,58.2